sensor_id;sensor_type;location;lat;lon;timestamp;pressure;altitude;pressure_sealevel;temperature;humidity
22651;BME280;11492;42.646;23.400;2023-02-02T00:01:41;95122.66;;;5.08;54.86
22651;BME280;11492;42.646;23.400;2023-02-02T00:04:07;95118.84;;;5.12;53.89
22651;BME280;11492;42.646;23.400;2023-02-02T00:06:33;95123.31;;;5.27;52.79
22651;BME280;11492;42.646;23.400;2023-02-02T00:09:00;95125.59;;;5.30;50.98
22651;BME280;11492;42.646;23.400;2023-02-02T00:11:26;95130.72;;;5.47;50.12
22651;BME280;11492;42.646;23.400;2023-02-02T00:13:52;95124.41;;;5.59;49.98
22651;BME280;11492;42.646;23.400;2023-02-02T00:19:01;95116.00;;;5.75;49.14
22651;BME280;11492;42.646;23.400;2023-02-02T00:21:27;95124.25;;;5.87;49.36
22651;BME280;11492;42.646;23.400;2023-02-02T00:23:52;95125.25;;;5.94;49.09
22651;BME280;11492;42.646;23.400;2023-02-02T00:26:19;95119.53;;;5.99;49.22
22651;BME280;11492;42.646;23.400;2023-02-02T00:28:45;95119.41;;;6.01;48.78
22651;BME280;11492;42.646;23.400;2023-02-02T00:31:11;95114.13;;;6.02;49.12
22651;BME280;11492;42.646;23.400;2023-02-02T00:33:37;95123.25;;;6.05;49.39
22651;BME280;11492;42.646;23.400;2023-02-02T00:36:02;95123.47;;;6.11;49.68
22651;BME280;11492;42.646;23.400;2023-02-02T00:38:29;95132.31;;;6.17;49.27
22651;BME280;11492;42.646;23.400;2023-02-02T00:40:54;95131.56;;;6.24;49.00
22651;BME280;11492;42.646;23.400;2023-02-02T00:43:23;95132.38;;;6.24;49.42
22651;BME280;11492;42.646;23.400;2023-02-02T00:45:48;95138.81;;;6.28;48.84
22651;BME280;11492;42.646;23.400;2023-02-02T00:48:16;95140.56;;;6.28;49.81
22651;BME280;11492;42.646;23.400;2023-02-02T00:50:42;95149.88;;;6.29;49.18
22651;BME280;11492;42.646;23.400;2023-02-02T00:53:07;95135.59;;;6.26;49.45
22651;BME280;11492;42.646;23.400;2023-02-02T00:55:32;95129.97;;;6.23;49.64
22651;BME280;11492;42.646;23.400;2023-02-02T00:57:58;95129.50;;;6.02;49.45
22651;BME280;11492;42.646;23.400;2023-02-02T01:00:25;95128.53;;;6.03;49.30
22651;BME280;11492;42.646;23.400;2023-02-02T01:02:52;95137.38;;;6.09;49.46
22651;BME280;11492;42.646;23.400;2023-02-02T01:05:18;95131.81;;;6.13;48.82
22651;BME280;11492;42.646;23.400;2023-02-02T01:07:44;95124.41;;;6.10;49.19
22651;BME280;11492;42.646;23.400;2023-02-02T01:10:15;95118.13;;;6.05;49.89
22651;BME280;11492;42.646;23.400;2023-02-02T01:12:41;95117.41;;;6.12;50.18
22651;BME280;11492;42.646;23.400;2023-02-02T01:15:08;95113.88;;;6.13;49.48
22651;BME280;11492;42.646;23.400;2023-02-02T01:17:34;95112.44;;;6.11;50.01
22651;BME280;11492;42.646;23.400;2023-02-02T01:19:59;95117.03;;;6.07;49.85
22651;BME280;11492;42.646;23.400;2023-02-02T01:22:25;95111.22;;;6.05;51.05
22651;BME280;11492;42.646;23.400;2023-02-02T01:24:50;95103.88;;;6.02;50.49
22651;BME280;11492;42.646;23.400;2023-02-02T01:27:16;95105.44;;;5.96;50.90
22651;BME280;11492;42.646;23.400;2023-02-02T01:29:42;95105.72;;;5.93;51.25
22651;BME280;11492;42.646;23.400;2023-02-02T01:32:07;95102.19;;;5.94;51.24
22651;BME280;11492;42.646;23.400;2023-02-02T01:34:33;95098.03;;;5.93;51.83
22651;BME280;11492;42.646;23.400;2023-02-02T01:36:58;95092.84;;;5.85;52.25
22651;BME280;11492;42.646;23.400;2023-02-02T01:39:24;95086.53;;;5.79;52.51
22651;BME280;11492;42.646;23.400;2023-02-02T01:41:49;95089.56;;;5.75;52.39
22651;BME280;11492;42.646;23.400;2023-02-02T01:47:42;95080.91;;;5.59;53.45
22651;BME280;11492;42.646;23.400;2023-02-02T01:50:11;95091.38;;;5.48;53.73
22651;BME280;11492;42.646;23.400;2023-02-02T01:52:40;95091.75;;;5.36;54.00
22651;BME280;11492;42.646;23.400;2023-02-02T01:55:10;95078.00;;;5.20;53.99
22651;BME280;11492;42.646;23.400;2023-02-02T01:57:48;95085.16;;;5.16;54.22
22651;BME280;11492;42.646;23.400;2023-02-02T02:00:17;95079.00;;;5.09;54.83
22651;BME280;11492;42.646;23.400;2023-02-02T02:02:50;95076.34;;;5.01;55.45
22651;BME280;11492;42.646;23.400;2023-02-02T02:05:24;95079.50;;;4.96;56.43
22651;BME280;11492;42.646;23.400;2023-02-02T02:07:50;95057.91;;;4.81;56.29
22651;BME280;11492;42.646;23.400;2023-02-02T02:10:17;95068.13;;;4.81;56.75
22651;BME280;11492;42.646;23.400;2023-02-02T02:12:43;95063.91;;;4.72;57.03
22651;BME280;11492;42.646;23.400;2023-02-02T02:15:09;95060.59;;;4.62;57.59
22651;BME280;11492;42.646;23.400;2023-02-02T02:20:33;95081.22;;;4.51;58.01
22651;BME280;11492;42.646;23.400;2023-02-02T02:37:08;95080.69;;;4.48;56.87
22651;BME280;11492;42.646;23.400;2023-02-02T02:39:53;95074.22;;;4.53;57.13
22651;BME280;11492;42.646;23.400;2023-02-02T02:42:24;95071.88;;;4.60;56.37
22651;BME280;11492;42.646;23.400;2023-02-02T02:44:52;95070.13;;;4.60;57.00
22651;BME280;11492;42.646;23.400;2023-02-02T02:47:19;95072.94;;;4.67;56.36
22651;BME280;11492;42.646;23.400;2023-02-02T02:49:46;95071.47;;;4.64;56.16
22651;BME280;11492;42.646;23.400;2023-02-02T02:52:12;95079.28;;;4.63;57.26
22651;BME280;11492;42.646;23.400;2023-02-02T02:54:46;95071.47;;;4.64;56.11
22651;BME280;11492;42.646;23.400;2023-02-02T02:57:36;95071.47;;;4.64;57.15
22651;BME280;11492;42.646;23.400;2023-02-02T03:05:51;95076.75;;;4.53;56.66
22651;BME280;11492;42.646;23.400;2023-02-02T03:10:57;95074.50;;;4.50;57.01
22651;BME280;11492;42.646;23.400;2023-02-02T03:13:25;95072.38;;;4.46;57.68
22651;BME280;11492;42.646;23.400;2023-02-02T03:15:51;95069.44;;;4.41;57.67
22651;BME280;11492;42.646;23.400;2023-02-02T03:18:19;95081.00;;;4.45;57.40
22651;BME280;11492;42.646;23.400;2023-02-02T03:20:45;95078.69;;;4.42;57.58
22651;BME280;11492;42.646;23.400;2023-02-02T03:23:11;95067.00;;;4.40;57.47
22651;BME280;11492;42.646;23.400;2023-02-02T03:25:37;95069.03;;;4.36;58.45
22651;BME280;11492;42.646;23.400;2023-02-02T03:28:04;95062.88;;;4.29;57.94
22651;BME280;11492;42.646;23.400;2023-02-02T03:30:30;95071.06;;;4.33;58.76
22651;BME280;11492;42.646;23.400;2023-02-02T03:32:56;95075.63;;;4.29;58.27
22651;BME280;11492;42.646;23.400;2023-02-02T03:35:21;95075.00;;;4.27;57.63
22651;BME280;11492;42.646;23.400;2023-02-02T03:37:47;95083.19;;;4.31;57.93
22651;BME280;11492;42.646;23.400;2023-02-02T03:40:13;95082.00;;;4.25;58.89
22651;BME280;11492;42.646;23.400;2023-02-02T03:42:38;95080.50;;;4.23;59.38
22651;BME280;11492;42.646;23.400;2023-02-02T03:45:04;95074.06;;;4.19;59.49
22651;BME280;11492;42.646;23.400;2023-02-02T03:47:30;95082.03;;;4.16;59.22
22651;BME280;11492;42.646;23.400;2023-02-02T03:49:56;95068.09;;;4.01;58.62
22651;BME280;11492;42.646;23.400;2023-02-02T03:52:22;95088.25;;;4.04;58.85
22651;BME280;11492;42.646;23.400;2023-02-02T03:54:47;95090.41;;;3.99;59.62
22651;BME280;11492;42.646;23.400;2023-02-02T03:57:12;95083.16;;;3.95;59.57
22651;BME280;11492;42.646;23.400;2023-02-02T03:59:38;95088.13;;;3.87;59.84
22651;BME280;11492;42.646;23.400;2023-02-02T04:02:03;95090.84;;;3.76;60.12
22651;BME280;11492;42.646;23.400;2023-02-02T04:04:29;95088.84;;;3.80;61.14
22651;BME280;11492;42.646;23.400;2023-02-02T04:06:54;95093.28;;;3.78;61.83
22651;BME280;11492;42.646;23.400;2023-02-02T04:09:20;95093.13;;;3.70;61.45
22651;BME280;11492;42.646;23.400;2023-02-02T04:11:45;95091.38;;;3.71;61.97
22651;BME280;11492;42.646;23.400;2023-02-02T04:14:11;95093.03;;;3.62;62.61
22651;BME280;11492;42.646;23.400;2023-02-02T04:16:36;95080.69;;;3.58;62.35
22651;BME280;11492;42.646;23.400;2023-02-02T04:19:03;95089.38;;;3.55;62.68
22651;BME280;11492;42.646;23.400;2023-02-02T04:21:28;95089.69;;;3.52;63.58
22651;BME280;11492;42.646;23.400;2023-02-02T04:23:55;95097.59;;;3.40;62.99
22651;BME280;11492;42.646;23.400;2023-02-02T04:26:20;95097.31;;;3.34;64.23
22651;BME280;11492;42.646;23.400;2023-02-02T04:28:46;95099.88;;;3.24;64.02
22651;BME280;11492;42.646;23.400;2023-02-02T04:31:11;95101.91;;;3.21;65.05
22651;BME280;11492;42.646;23.400;2023-02-02T04:33:37;95098.63;;;3.10;64.96
22651;BME280;11492;42.646;23.400;2023-02-02T04:36:03;95104.28;;;3.13;64.38
22651;BME280;11492;42.646;23.400;2023-02-02T04:38:28;95108.34;;;3.16;64.91
22651;BME280;11492;42.646;23.400;2023-02-02T04:40:53;95097.03;;;3.09;64.35
22651;BME280;11492;42.646;23.400;2023-02-02T04:43:19;95106.44;;;3.08;65.12
22651;BME280;11492;42.646;23.400;2023-02-02T04:45:44;95104.81;;;3.07;63.97
22651;BME280;11492;42.646;23.400;2023-02-02T04:48:10;95114.19;;;2.97;63.68
22651;BME280;11492;42.646;23.400;2023-02-02T04:50:35;95121.28;;;2.94;65.05
22651;BME280;11492;42.646;23.400;2023-02-02T04:53:02;95116.56;;;2.90;63.95
22651;BME280;11492;42.646;23.400;2023-02-02T04:55:28;95114.13;;;2.79;64.80
22651;BME280;11492;42.646;23.400;2023-02-02T04:57:53;95105.56;;;2.71;65.14
22651;BME280;11492;42.646;23.400;2023-02-02T05:00:19;95108.91;;;2.71;65.25
22651;BME280;11492;42.646;23.400;2023-02-02T05:02:44;95123.53;;;2.69;65.40
22651;BME280;11492;42.646;23.400;2023-02-02T05:05:12;95119.88;;;2.62;65.13
22651;BME280;11492;42.646;23.400;2023-02-02T05:07:38;95121.31;;;2.55;65.54
22651;BME280;11492;42.646;23.400;2023-02-02T05:10:05;95127.03;;;2.48;65.96
22651;BME280;11492;42.646;23.400;2023-02-02T05:12:30;95127.31;;;2.45;66.42
22651;BME280;11492;42.646;23.400;2023-02-02T05:14:56;95116.84;;;2.39;66.01
22651;BME280;11492;42.646;23.400;2023-02-02T05:17:21;95113.19;;;2.32;66.32
22651;BME280;11492;42.646;23.400;2023-02-02T05:19:47;95117.75;;;2.28;65.79
22651;BME280;11492;42.646;23.400;2023-02-02T05:22:12;95122.25;;;2.25;66.81
22651;BME280;11492;42.646;23.400;2023-02-02T05:24:37;95122.78;;;2.19;66.90
22651;BME280;11492;42.646;23.400;2023-02-02T05:27:03;95117.25;;;2.14;66.89
22651;BME280;11492;42.646;23.400;2023-02-02T05:29:29;95124.63;;;2.17;67.12
22651;BME280;11492;42.646;23.400;2023-02-02T05:31:55;95119.81;;;2.14;67.49
22651;BME280;11492;42.646;23.400;2023-02-02T05:34:21;95127.56;;;2.13;68.05
22651;BME280;11492;42.646;23.400;2023-02-02T05:36:47;95124.22;;;2.12;67.77
22651;BME280;11492;42.646;23.400;2023-02-02T05:39:13;95130.22;;;2.11;68.42
22651;BME280;11492;42.646;23.400;2023-02-02T05:41:38;95132.09;;;2.09;69.63
22651;BME280;11492;42.646;23.400;2023-02-02T05:44:04;95136.13;;;2.12;69.19
22651;BME280;11492;42.646;23.400;2023-02-02T05:46:30;95140.97;;;2.15;68.79
22651;BME280;11492;42.646;23.400;2023-02-02T05:48:55;95140.84;;;2.16;69.13
22651;BME280;11492;42.646;23.400;2023-02-02T05:51:28;95134.00;;;2.17;68.42
22651;BME280;11492;42.646;23.400;2023-02-02T05:53:56;95146.78;;;2.26;68.80
22651;BME280;11492;42.646;23.400;2023-02-02T05:56:21;95142.88;;;2.22;68.37
22651;BME280;11492;42.646;23.400;2023-02-02T05:58:47;95143.72;;;2.23;68.41
22651;BME280;11492;42.646;23.400;2023-02-02T06:01:14;95141.69;;;2.26;69.20
22651;BME280;11492;42.646;23.400;2023-02-02T06:03:40;95141.31;;;2.30;68.91
22651;BME280;11492;42.646;23.400;2023-02-02T06:06:05;95135.66;;;2.27;68.67
22651;BME280;11492;42.646;23.400;2023-02-02T06:08:31;95136.78;;;2.34;67.81
22651;BME280;11492;42.646;23.400;2023-02-02T06:10:56;95142.63;;;2.25;68.09
22651;BME280;11492;42.646;23.400;2023-02-02T06:13:22;95143.44;;;2.25;68.17
22651;BME280;11492;42.646;23.400;2023-02-02T06:15:47;95139.84;;;2.28;68.52
22651;BME280;11492;42.646;23.400;2023-02-02T06:18:12;95151.38;;;2.32;68.03
22651;BME280;11492;42.646;23.400;2023-02-02T06:20:38;95150.44;;;2.33;67.92
22651;BME280;11492;42.646;23.400;2023-02-02T06:23:04;95149.44;;;2.45;68.54
22651;BME280;11492;42.646;23.400;2023-02-02T06:25:30;95166.66;;;2.91;67.74
22651;BME280;11492;42.646;23.400;2023-02-02T06:27:59;95161.16;;;3.04;66.42
22651;BME280;11492;42.646;23.400;2023-02-02T06:30:26;95164.94;;;3.00;65.95
22651;BME280;11492;42.646;23.400;2023-02-02T06:32:52;95165.72;;;3.01;65.19
22651;BME280;11492;42.646;23.400;2023-02-02T06:35:18;95186.38;;;2.98;65.66
22651;BME280;11492;42.646;23.400;2023-02-02T06:37:44;95183.59;;;3.01;65.96
22651;BME280;11492;42.646;23.400;2023-02-02T06:40:10;95166.13;;;2.97;65.77
22651;BME280;11492;42.646;23.400;2023-02-02T06:42:35;95175.53;;;3.05;65.91
22651;BME280;11492;42.646;23.400;2023-02-02T06:45:02;95182.78;;;3.10;65.34
22651;BME280;11492;42.646;23.400;2023-02-02T06:47:28;95191.66;;;3.15;65.92
22651;BME280;11492;42.646;23.400;2023-02-02T06:49:53;95178.50;;;3.20;66.25
22651;BME280;11492;42.646;23.400;2023-02-02T06:52:18;95181.34;;;3.26;66.06
22651;BME280;11492;42.646;23.400;2023-02-02T06:54:44;95180.03;;;3.31;65.74
22651;BME280;11492;42.646;23.400;2023-02-02T06:57:09;95172.63;;;3.28;64.89
22651;BME280;11492;42.646;23.400;2023-02-02T06:59:35;95188.91;;;3.37;65.45
22651;BME280;11492;42.646;23.400;2023-02-02T07:02:00;95183.09;;;3.35;64.94
22651;BME280;11492;42.646;23.400;2023-02-02T07:04:26;95198.03;;;3.39;64.55
22651;BME280;11492;42.646;23.400;2023-02-02T07:06:51;95181.38;;;3.45;64.67
22651;BME280;11492;42.646;23.400;2023-02-02T07:09:17;95197.50;;;3.54;63.53
22651;BME280;11492;42.646;23.400;2023-02-02T07:11:42;95200.47;;;3.59;64.57
22651;BME280;11492;42.646;23.400;2023-02-02T07:14:08;95201.41;;;3.58;63.05
22651;BME280;11492;42.646;23.400;2023-02-02T07:16:34;95195.34;;;3.59;64.09
22651;BME280;11492;42.646;23.400;2023-02-02T07:18:59;95192.00;;;3.59;64.37
22651;BME280;11492;42.646;23.400;2023-02-02T07:21:25;95189.47;;;3.68;63.57
22651;BME280;11492;42.646;23.400;2023-02-02T07:23:53;95185.03;;;3.70;63.51
22651;BME280;11492;42.646;23.400;2023-02-02T07:26:19;95200.06;;;3.82;63.39
22651;BME280;11492;42.646;23.400;2023-02-02T07:28:45;95199.41;;;3.90;62.72
22651;BME280;11492;42.646;23.400;2023-02-02T07:31:14;95196.84;;;3.90;62.17
22651;BME280;11492;42.646;23.400;2023-02-02T07:33:41;95204.66;;;3.88;62.21
22651;BME280;11492;42.646;23.400;2023-02-02T07:36:07;95207.22;;;3.88;63.00
22651;BME280;11492;42.646;23.400;2023-02-02T07:38:32;95203.16;;;3.86;62.76
22651;BME280;11492;42.646;23.400;2023-02-02T07:41:00;95205.47;;;3.89;62.58
22651;BME280;11492;42.646;23.400;2023-02-02T07:43:26;95213.63;;;3.92;62.68
22651;BME280;11492;42.646;23.400;2023-02-02T07:45:51;95206.13;;;4.00;61.39
22651;BME280;11492;42.646;23.400;2023-02-02T07:48:16;95190.25;;;4.06;61.22
22651;BME280;11492;42.646;23.400;2023-02-02T07:50:42;95181.91;;;4.13;62.05
22651;BME280;11492;42.646;23.400;2023-02-02T07:53:07;95174.63;;;4.18;61.21
22651;BME280;11492;42.646;23.400;2023-02-02T07:55:33;95178.94;;;4.27;61.18
22651;BME280;11492;42.646;23.400;2023-02-02T07:57:58;95167.50;;;4.31;61.26
22651;BME280;11492;42.646;23.400;2023-02-02T08:00:24;95155.22;;;4.34;61.05
22651;BME280;11492;42.646;23.400;2023-02-02T08:02:50;95149.03;;;4.46;61.36
22651;BME280;11492;42.646;23.400;2023-02-02T08:05:16;95153.34;;;4.46;60.69
22651;BME280;11492;42.646;23.400;2023-02-02T08:07:41;95164.63;;;4.52;60.85
22651;BME280;11492;42.646;23.400;2023-02-02T08:10:08;95155.72;;;4.56;60.51
22651;BME280;11492;42.646;23.400;2023-02-02T08:12:33;95154.88;;;4.65;60.13
22651;BME280;11492;42.646;23.400;2023-02-02T08:14:59;95149.47;;;4.68;60.55
22651;BME280;11492;42.646;23.400;2023-02-02T08:17:24;95153.34;;;4.81;60.29
22651;BME280;11492;42.646;23.400;2023-02-02T08:19:50;95139.03;;;4.88;59.95
22651;BME280;11492;42.646;23.400;2023-02-02T08:22:15;95134.19;;;5.12;59.68
22651;BME280;11492;42.646;23.400;2023-02-02T08:24:41;95137.53;;;5.39;59.72
22651;BME280;11492;42.646;23.400;2023-02-02T08:27:07;95126.88;;;5.60;59.02
22651;BME280;11492;42.646;23.400;2023-02-02T08:29:34;95126.56;;;5.97;58.43
22651;BME280;11492;42.646;23.400;2023-02-02T08:31:59;95122.31;;;7.45;55.43
22651;BME280;11492;42.646;23.400;2023-02-02T08:34:26;95107.56;;;9.40;49.78
22651;BME280;11492;42.646;23.400;2023-02-02T08:36:51;95111.97;;;11.21;44.42
22651;BME280;11492;42.646;23.400;2023-02-02T08:39:17;95108.16;;;13.02;41.53
22651;BME280;11492;42.646;23.400;2023-02-02T08:41:42;95098.06;;;13.60;38.93
22651;BME280;11492;42.646;23.400;2023-02-02T08:44:12;95089.28;;;14.39;36.82
22651;BME280;11492;42.646;23.400;2023-02-02T08:46:38;95087.25;;;14.85;36.01
22651;BME280;11492;42.646;23.400;2023-02-02T08:49:04;95081.47;;;15.95;34.13
22651;BME280;11492;42.646;23.400;2023-02-02T08:51:29;95094.31;;;17.23;32.64
22651;BME280;11492;42.646;23.400;2023-02-02T08:53:54;95086.38;;;17.18;31.34
22651;BME280;11492;42.646;23.400;2023-02-02T08:56:21;95095.41;;;17.86;30.48
22651;BME280;11492;42.646;23.400;2023-02-02T08:58:49;95093.47;;;17.64;30.65
22651;BME280;11492;42.646;23.400;2023-02-02T09:01:19;95098.84;;;17.51;30.65
22651;BME280;11492;42.646;23.400;2023-02-02T09:03:45;95089.13;;;16.27;32.05
22651;BME280;11492;42.646;23.400;2023-02-02T09:06:16;95097.41;;;14.99;34.16
22651;BME280;11492;42.646;23.400;2023-02-02T09:08:42;95093.25;;;14.03;35.58
22651;BME280;11492;42.646;23.400;2023-02-02T09:11:14;95103.75;;;12.96;37.29
22651;BME280;11492;42.646;23.400;2023-02-02T09:13:42;95101.00;;;12.50;38.52
22651;BME280;11492;42.646;23.400;2023-02-02T09:16:11;95098.03;;;12.06;39.24
22651;BME280;11492;42.646;23.400;2023-02-02T09:18:38;95093.03;;;11.84;40.17
22651;BME280;11492;42.646;23.400;2023-02-02T09:21:05;95093.91;;;11.91;39.83
22651;BME280;11492;42.646;23.400;2023-02-02T09:23:33;95086.50;;;11.67;40.39
22651;BME280;11492;42.646;23.400;2023-02-02T09:28:40;95086.94;;;10.79;42.03
22651;BME280;11492;42.646;23.400;2023-02-02T09:31:06;95087.88;;;11.49;41.99
22651;BME280;11492;42.646;23.400;2023-02-02T09:33:31;95063.47;;;12.40;39.57
22651;BME280;11492;42.646;23.400;2023-02-02T09:38:30;95059.06;;;13.34;37.00
22651;BME280;11492;42.646;23.400;2023-02-02T09:40:56;95061.03;;;13.26;38.01
22651;BME280;11492;42.646;23.400;2023-02-02T09:46:14;95056.03;;;13.90;36.98
22651;BME280;11492;42.646;23.400;2023-02-02T09:51:20;95050.84;;;15.91;33.36
22651;BME280;11492;42.646;23.400;2023-02-02T09:56:23;95047.56;;;16.80;31.61
22651;BME280;11492;42.646;23.400;2023-02-02T09:58:54;95032.97;;;16.00;31.96
22651;BME280;11492;42.646;23.400;2023-02-02T10:01:33;95029.50;;;16.13;32.32
22651;BME280;11492;42.646;23.400;2023-02-02T10:06:42;95008.59;;;16.85;31.67
22651;BME280;11492;42.646;23.400;2023-02-02T10:09:33;95023.34;;;17.32;31.03
22651;BME280;11492;42.646;23.400;2023-02-02T10:12:13;95015.38;;;17.74;30.88
22651;BME280;11492;42.646;23.400;2023-02-02T10:19:45;95024.41;;;14.95;33.77
22651;BME280;11492;42.646;23.400;2023-02-02T10:22:17;95018.72;;;14.22;34.86
22651;BME280;11492;42.646;23.400;2023-02-02T10:24:44;95010.63;;;13.54;36.71
22651;BME280;11492;42.646;23.400;2023-02-02T10:27:15;95006.91;;;13.10;37.22
22651;BME280;11492;42.646;23.400;2023-02-02T10:32:13;94998.97;;;12.18;38.43
22651;BME280;11492;42.646;23.400;2023-02-02T10:37:35;95004.16;;;11.71;38.70
22651;BME280;11492;42.646;23.400;2023-02-02T10:40:20;94995.13;;;11.60;38.99
22651;BME280;11492;42.646;23.400;2023-02-02T10:43:18;94995.03;;;11.74;39.63
22651;BME280;11492;42.646;23.400;2023-02-02T10:46:14;94980.88;;;11.91;39.32
22651;BME280;11492;42.646;23.400;2023-02-02T10:48:47;94974.94;;;11.97;38.95
22651;BME280;11492;42.646;23.400;2023-02-02T10:51:20;94955.44;;;11.74;37.52
22651;BME280;11492;42.646;23.400;2023-02-02T10:53:52;94957.66;;;11.77;37.62
22651;BME280;11492;42.646;23.400;2023-02-02T10:56:39;94954.00;;;11.65;36.80
22651;BME280;11492;42.646;23.400;2023-02-02T11:01:37;94936.22;;;11.83;37.51
22651;BME280;11492;42.646;23.400;2023-02-02T11:04:03;94936.66;;;14.02;34.05
22651;BME280;11492;42.646;23.400;2023-02-02T11:06:47;94934.53;;;17.03;30.04
22651;BME280;11492;42.646;23.400;2023-02-02T11:09:39;94920.84;;;18.96;25.80
22651;BME280;11492;42.646;23.400;2023-02-02T11:12:33;94917.34;;;20.00;24.46
22651;BME280;11492;42.646;23.400;2023-02-02T11:15:22;94912.41;;;19.88;24.15
22651;BME280;11492;42.646;23.400;2023-02-02T11:17:46;94913.59;;;20.61;23.93
22651;BME280;11492;42.646;23.400;2023-02-02T11:20:44;94907.44;;;21.30;22.56
22651;BME280;11492;42.646;23.400;2023-02-02T11:23:16;94912.25;;;21.17;22.43
22651;BME280;11492;42.646;23.400;2023-02-02T11:25:42;94900.22;;;20.47;22.60
22651;BME280;11492;42.646;23.400;2023-02-02T11:28:18;94890.81;;;21.46;22.16
22651;BME280;11492;42.646;23.400;2023-02-02T11:30:49;94885.78;;;22.63;21.31
22651;BME280;11492;42.646;23.400;2023-02-02T11:33:30;94876.00;;;23.75;20.25
22651;BME280;11492;42.646;23.400;2023-02-02T11:36:00;94877.28;;;23.57;20.30
22651;BME280;11492;42.646;23.400;2023-02-02T11:38:26;94878.91;;;23.83;19.73
22651;BME280;11492;42.646;23.400;2023-02-02T11:41:01;94884.22;;;21.01;21.47
22651;BME280;11492;42.646;23.400;2023-02-02T11:46:05;94866.56;;;22.22;21.30
22651;BME280;11492;42.646;23.400;2023-02-02T11:48:37;94877.41;;;22.35;20.55
22651;BME280;11492;42.646;23.400;2023-02-02T11:51:04;94857.91;;;22.67;20.00
22651;BME280;11492;42.646;23.400;2023-02-02T11:56:09;94845.91;;;23.61;19.25
22651;BME280;11492;42.646;23.400;2023-02-02T11:58:55;94843.81;;;23.68;19.31
22651;BME280;11492;42.646;23.400;2023-02-02T12:01:37;94843.31;;;24.34;18.90
22651;BME280;11492;42.646;23.400;2023-02-02T12:04:22;94837.56;;;23.18;19.60
22651;BME280;11492;42.646;23.400;2023-02-02T12:06:48;94816.41;;;24.18;18.83
22651;BME280;11492;42.646;23.400;2023-02-02T12:09:20;94842.81;;;22.17;19.23
22651;BME280;11492;42.646;23.400;2023-02-02T12:14:43;94846.47;;;21.07;21.32
22651;BME280;11492;42.646;23.400;2023-02-02T12:20:00;94836.47;;;23.00;20.36
22651;BME280;11492;42.646;23.400;2023-02-02T12:27:56;94835.16;;;18.92;22.73
22651;BME280;11492;42.646;23.400;2023-02-02T12:33:33;94860.75;;;16.15;26.28
22651;BME280;11492;42.646;23.400;2023-02-02T12:36:20;94866.63;;;14.89;28.51
22651;BME280;11492;42.646;23.400;2023-02-02T12:47:30;94877.75;;;12.21;31.76
22651;BME280;11492;42.646;23.400;2023-02-02T13:02:02;94878.00;;;10.63;36.12
22651;BME280;11492;42.646;23.400;2023-02-02T13:07:43;94851.63;;;10.68;35.90
22651;BME280;11492;42.646;23.400;2023-02-02T13:10:35;94859.63;;;10.72;35.28
22651;BME280;11492;42.646;23.400;2023-02-02T13:15:40;94867.34;;;10.52;35.92
22651;BME280;11492;42.646;23.400;2023-02-02T13:20:50;94857.59;;;11.50;34.44
22651;BME280;11492;42.646;23.400;2023-02-02T13:25:52;94866.13;;;11.78;33.27
22651;BME280;11492;42.646;23.400;2023-02-02T13:28:30;94859.13;;;12.05;34.31
22651;BME280;11492;42.646;23.400;2023-02-02T13:30:58;94846.41;;;13.28;32.13
22651;BME280;11492;42.646;23.400;2023-02-02T13:33:29;94843.06;;;14.41;30.27
22651;BME280;11492;42.646;23.400;2023-02-02T13:36:01;94840.69;;;14.39;30.62
22651;BME280;11492;42.646;23.400;2023-02-02T13:38:28;94848.31;;;14.21;30.55
22651;BME280;11492;42.646;23.400;2023-02-02T13:40:57;94850.19;;;13.57;31.01
22651;BME280;11492;42.646;23.400;2023-02-02T13:43:33;94840.59;;;13.13;32.21
22651;BME280;11492;42.646;23.400;2023-02-02T13:51:29;94841.75;;;14.06;30.70
22651;BME280;11492;42.646;23.400;2023-02-02T13:57:15;94854.16;;;12.44;32.06
22651;BME280;11492;42.646;23.400;2023-02-02T14:02:48;94857.19;;;11.53;33.53
22651;BME280;11492;42.646;23.400;2023-02-02T14:08:05;94851.88;;;11.88;33.79
22651;BME280;11492;42.646;23.400;2023-02-02T14:10:39;94851.66;;;11.56;35.17
22651;BME280;11492;42.646;23.400;2023-02-02T14:13:16;94851.38;;;11.72;35.28
22651;BME280;11492;42.646;23.400;2023-02-02T14:16:04;94842.19;;;11.96;34.50
22651;BME280;11492;42.646;23.400;2023-02-02T14:24:02;94839.63;;;10.60;39.32
22651;BME280;11492;42.646;23.400;2023-02-02T14:26:48;94859.97;;;10.35;40.32
22651;BME280;11492;42.646;23.400;2023-02-02T14:45:38;94898.81;;;9.12;44.32
22651;BME280;11492;42.646;23.400;2023-02-02T14:50:40;94942.88;;;9.17;49.10
22651;BME280;11492;42.646;23.400;2023-02-02T14:53:16;94979.47;;;9.04;53.28
22651;BME280;11492;42.646;23.400;2023-02-02T14:58:31;95008.97;;;8.03;63.05
22651;BME280;11492;42.646;23.400;2023-02-02T15:06:31;95041.19;;;6.96;69.06
22651;BME280;11492;42.646;23.400;2023-02-02T15:14:24;95074.09;;;6.26;69.79
22651;BME280;11492;42.646;23.400;2023-02-02T15:16:51;95080.53;;;5.88;71.04
22651;BME280;11492;42.646;23.400;2023-02-02T15:19:31;95082.66;;;5.58;72.52
22651;BME280;11492;42.646;23.400;2023-02-02T15:24:49;95103.78;;;5.09;73.87
22651;BME280;11492;42.646;23.400;2023-02-02T15:27:16;95121.38;;;4.95;74.88
22651;BME280;11492;42.646;23.400;2023-02-02T15:29:45;95119.91;;;4.92;75.65
22651;BME280;11492;42.646;23.400;2023-02-02T15:32:16;95130.56;;;4.88;75.39
22651;BME280;11492;42.646;23.400;2023-02-02T15:34:51;95128.09;;;4.96;77.04
22651;BME280;11492;42.646;23.400;2023-02-02T15:37:21;95119.03;;;4.74;75.60
22651;BME280;11492;42.646;23.400;2023-02-02T15:39:51;95134.16;;;4.68;76.17
22651;BME280;11492;42.646;23.400;2023-02-02T15:42:19;95134.28;;;4.67;75.93
22651;BME280;11492;42.646;23.400;2023-02-02T15:45:05;95139.31;;;4.49;76.49
22651;BME280;11492;42.646;23.400;2023-02-02T15:47:36;95137.88;;;4.38;77.23
22651;BME280;11492;42.646;23.400;2023-02-02T15:50:16;95139.81;;;4.26;76.90
22651;BME280;11492;42.646;23.400;2023-02-02T15:52:48;95153.16;;;4.02;78.16